sensor_id;sensor_type;location;lat;lon;timestamp;P1;durP1;ratioP1;P2;durP2;ratioP2
65275;SDS011;51875;49.994;14.052;2024-03-29T00:01:00;2.47;;;1.00;;
65275;SDS011;51875;49.994;14.052;2024-03-29T00:02:18;2.40;;;1.27;;
65275;SDS011;51875;49.994;14.052;2024-03-29T00:03:38;2.65;;;1.30;;
65275;SDS011;51875;49.994;14.052;2024-03-29T00:04:54;2.72;;;1.60;;
65275;SDS011;51875;49.994;14.052;2024-03-29T00:06:10;2.53;;;1.55;;
65275;SDS011;51875;49.994;14.052;2024-03-29T00:07:27;2.78;;;1.00;;
65275;SDS011;51875;49.994;14.052;2024-03-29T00:08:43;1.42;;;0.85;;
65275;SDS011;51875;49.994;14.052;2024-03-29T00:11:19;2.30;;;0.90;;
65275;SDS011;51875;49.994;14.052;2024-03-29T00:12:38;3.15;;;1.15;;
65275;SDS011;51875;49.994;14.052;2024-03-29T00:13:54;1.55;;;0.88;;
65275;SDS011;51875;49.994;14.052;2024-03-29T00:15:10;1.38;;;1.08;;
65275;SDS011;51875;49.994;14.052;2024-03-29T00:16:26;1.75;;;1.25;;
65275;SDS011;51875;49.994;14.052;2024-03-29T00:17:42;1.17;;;0.82;;
65275;SDS011;51875;49.994;14.052;2024-03-29T00:19:01;2.55;;;1.42;;
65275;SDS011;51875;49.994;14.052;2024-03-29T00:20:17;1.48;;;0.77;;
65275;SDS011;51875;49.994;14.052;2024-03-29T00:21:36;1.30;;;0.70;;
65275;SDS011;51875;49.994;14.052;2024-03-29T00:22:55;2.13;;;1.08;;
65275;SDS011;51875;49.994;14.052;2024-03-29T00:24:15;2.38;;;1.02;;
65275;SDS011;51875;49.994;14.052;2024-03-29T00:25:31;3.40;;;1.08;;
65275;SDS011;51875;49.994;14.052;2024-03-29T00:26:47;2.55;;;1.17;;
65275;SDS011;51875;49.994;14.052;2024-03-29T00:28:03;2.35;;;1.00;;
65275;SDS011;51875;49.994;14.052;2024-03-29T00:29:23;1.00;;;0.90;;
65275;SDS011;51875;49.994;14.052;2024-03-29T00:30:43;1.13;;;0.93;;
65275;SDS011;51875;49.994;14.052;2024-03-29T00:31:59;1.77;;;0.95;;
65275;SDS011;51875;49.994;14.052;2024-03-29T00:33:15;1.73;;;1.08;;
65275;SDS011;51875;49.994;14.052;2024-03-29T00:34:31;1.85;;;1.00;;
65275;SDS011;51875;49.994;14.052;2024-03-29T00:35:48;1.38;;;1.00;;
65275;SDS011;51875;49.994;14.052;2024-03-29T00:37:08;3.25;;;0.98;;
65275;SDS011;51875;49.994;14.052;2024-03-29T00:38:30;2.67;;;1.17;;
65275;SDS011;51875;49.994;14.052;2024-03-29T00:39:46;1.30;;;1.02;;
65275;SDS011;51875;49.994;14.052;2024-03-29T00:41:02;2.80;;;1.15;;
65275;SDS011;51875;49.994;14.052;2024-03-29T00:42:19;1.55;;;1.02;;
65275;SDS011;51875;49.994;14.052;2024-03-29T00:43:36;1.67;;;1.20;;
65275;SDS011;51875;49.994;14.052;2024-03-29T00:44:52;2.72;;;1.40;;
65275;SDS011;51875;49.994;14.052;2024-03-29T00:46:09;2.92;;;1.10;;
65275;SDS011;51875;49.994;14.052;2024-03-29T00:47:25;2.13;;;1.10;;
65275;SDS011;51875;49.994;14.052;2024-03-29T00:48:41;1.67;;;1.10;;
65275;SDS011;51875;49.994;14.052;2024-03-29T00:49:59;3.35;;;1.30;;
65275;SDS011;51875;49.994;14.052;2024-03-29T00:51:16;4.38;;;1.20;;
65275;SDS011;51875;49.994;14.052;2024-03-29T00:52:32;1.45;;;1.10;;
65275;SDS011;51875;49.994;14.052;2024-03-29T00:53:51;1.50;;;1.10;;
65275;SDS011;51875;49.994;14.052;2024-03-29T00:55:07;3.60;;;1.23;;
65275;SDS011;51875;49.994;14.052;2024-03-29T00:56:26;2.05;;;1.20;;
65275;SDS011;51875;49.994;14.052;2024-03-29T00:57:43;2.70;;;1.30;;
65275;SDS011;51875;49.994;14.052;2024-03-29T00:59:01;1.75;;;1.13;;
65275;SDS011;51875;49.994;14.052;2024-03-29T01:00:17;3.70;;;1.17;;
65275;SDS011;51875;49.994;14.052;2024-03-29T01:01:34;3.97;;;1.20;;
65275;SDS011;51875;49.994;14.052;2024-03-29T01:02:50;2.85;;;1.60;;
65275;SDS011;51875;49.994;14.052;2024-03-29T01:04:08;2.00;;;1.35;;
65275;SDS011;51875;49.994;14.052;2024-03-29T01:05:24;2.60;;;1.50;;
65275;SDS011;51875;49.994;14.052;2024-03-29T01:06:40;3.33;;;1.40;;
65275;SDS011;51875;49.994;14.052;2024-03-29T01:07:57;2.65;;;1.35;;
65275;SDS011;51875;49.994;14.052;2024-03-29T01:09:13;2.40;;;1.58;;
65275;SDS011;51875;49.994;14.052;2024-03-29T01:10:29;3.58;;;1.70;;
65275;SDS011;51875;49.994;14.052;2024-03-29T01:11:45;2.38;;;1.45;;
65275;SDS011;51875;49.994;14.052;2024-03-29T01:13:01;2.65;;;1.33;;
65275;SDS011;51875;49.994;14.052;2024-03-29T01:14:18;2.30;;;1.40;;
65275;SDS011;51875;49.994;14.052;2024-03-29T01:15:34;2.58;;;1.30;;
65275;SDS011;51875;49.994;14.052;2024-03-29T01:16:50;2.80;;;1.40;;
65275;SDS011;51875;49.994;14.052;2024-03-29T01:18:06;3.17;;;1.52;;
65275;SDS011;51875;49.994;14.052;2024-03-29T01:19:23;2.92;;;1.20;;
65275;SDS011;51875;49.994;14.052;2024-03-29T01:20:39;2.58;;;1.20;;
65275;SDS011;51875;49.994;14.052;2024-03-29T01:21:55;2.42;;;1.30;;
65275;SDS011;51875;49.994;14.052;2024-03-29T01:23:11;1.73;;;1.20;;
65275;SDS011;51875;49.994;14.052;2024-03-29T01:24:27;2.30;;;1.27;;
65275;SDS011;51875;49.994;14.052;2024-03-29T01:25:44;2.85;;;1.20;;
65275;SDS011;51875;49.994;14.052;2024-03-29T01:27:00;2.42;;;1.40;;
65275;SDS011;51875;49.994;14.052;2024-03-29T01:28:16;2.40;;;1.10;;
65275;SDS011;51875;49.994;14.052;2024-03-29T01:29:33;1.13;;;1.02;;
65275;SDS011;51875;49.994;14.052;2024-03-29T01:30:54;2.55;;;1.20;;
65275;SDS011;51875;49.994;14.052;2024-03-29T01:32:14;2.47;;;1.15;;
65275;SDS011;51875;49.994;14.052;2024-03-29T01:33:30;2.25;;;1.13;;
65275;SDS011;51875;49.994;14.052;2024-03-29T01:34:52;1.13;;;0.90;;
65275;SDS011;51875;49.994;14.052;2024-03-29T01:36:08;1.98;;;1.13;;
65275;SDS011;51875;49.994;14.052;2024-03-29T01:37:24;1.63;;;1.20;;
65275;SDS011;51875;49.994;14.052;2024-03-29T01:38:40;2.47;;;1.20;;
65275;SDS011;51875;49.994;14.052;2024-03-29T01:39:56;1.58;;;1.15;;
65275;SDS011;51875;49.994;14.052;2024-03-29T01:41:13;2.85;;;0.93;;
65275;SDS011;51875;49.994;14.052;2024-03-29T01:42:29;2.10;;;1.17;;
65275;SDS011;51875;49.994;14.052;2024-03-29T01:43:45;1.40;;;1.10;;
65275;SDS011;51875;49.994;14.052;2024-03-29T01:45:01;3.17;;;1.10;;
65275;SDS011;51875;49.994;14.052;2024-03-29T01:46:18;3.25;;;1.20;;
65275;SDS011;51875;49.994;14.052;2024-03-29T01:47:37;1.65;;;1.00;;
65275;SDS011;51875;49.994;14.052;2024-03-29T01:48:53;1.65;;;1.08;;
65275;SDS011;51875;49.994;14.052;2024-03-29T01:50:13;1.58;;;1.10;;
65275;SDS011;51875;49.994;14.052;2024-03-29T01:51:29;1.95;;;1.10;;
65275;SDS011;51875;49.994;14.052;2024-03-29T01:52:47;2.10;;;1.20;;
65275;SDS011;51875;49.994;14.052;2024-03-29T01:54:05;1.63;;;1.08;;
65275;SDS011;51875;49.994;14.052;2024-03-29T01:55:24;2.10;;;1.20;;
65275;SDS011;51875;49.994;14.052;2024-03-29T01:56:41;2.10;;;1.27;;
65275;SDS011;51875;49.994;14.052;2024-03-29T01:57:58;1.80;;;1.10;;
65275;SDS011;51875;49.994;14.052;2024-03-29T01:59:17;1.63;;;1.15;;
65275;SDS011;51875;49.994;14.052;2024-03-29T02:00:36;2.47;;;1.20;;
65275;SDS011;51875;49.994;14.052;2024-03-29T02:01:54;2.75;;;1.30;;
65275;SDS011;51875;49.994;14.052;2024-03-29T02:03:11;2.47;;;1.27;;
65275;SDS011;51875;49.994;14.052;2024-03-29T02:04:30;2.13;;;1.10;;
65275;SDS011;51875;49.994;14.052;2024-03-29T02:05:46;1.67;;;1.23;;
65275;SDS011;51875;49.994;14.052;2024-03-29T02:07:04;2.17;;;1.33;;
65275;SDS011;51875;49.994;14.052;2024-03-29T02:08:21;2.58;;;1.17;;
65275;SDS011;51875;49.994;14.052;2024-03-29T02:09:40;2.92;;;1.15;;
65275;SDS011;51875;49.994;14.052;2024-03-29T02:10:56;2.33;;;1.13;;
65275;SDS011;51875;49.994;14.052;2024-03-29T02:12:13;1.42;;;0.88;;
65275;SDS011;51875;49.994;14.052;2024-03-29T02:13:29;1.55;;;1.00;;
65275;SDS011;51875;49.994;14.052;2024-03-29T02:14:47;1.83;;;1.00;;
65275;SDS011;51875;49.994;14.052;2024-03-29T02:16:03;2.20;;;1.10;;
65275;SDS011;51875;49.994;14.052;2024-03-29T02:17:20;2.65;;;1.20;;
65275;SDS011;51875;49.994;14.052;2024-03-29T02:18:36;2.42;;;1.30;;
65275;SDS011;51875;49.994;14.052;2024-03-29T02:19:53;1.88;;;1.10;;
65275;SDS011;51875;49.994;14.052;2024-03-29T02:21:09;3.97;;;1.63;;
65275;SDS011;51875;49.994;14.052;2024-03-29T02:22:25;3.35;;;1.60;;
65275;SDS011;51875;49.994;14.052;2024-03-29T02:23:44;1.58;;;1.13;;
65275;SDS011;51875;49.994;14.052;2024-03-29T02:25:03;2.47;;;1.45;;
65275;SDS011;51875;49.994;14.052;2024-03-29T02:26:19;1.60;;;1.20;;
65275;SDS011;51875;49.994;14.052;2024-03-29T02:27:35;1.48;;;1.08;;
65275;SDS011;51875;49.994;14.052;2024-03-29T02:28:52;1.65;;;1.20;;
65275;SDS011;51875;49.994;14.052;2024-03-29T02:30:08;1.50;;;0.90;;
65275;SDS011;51875;49.994;14.052;2024-03-29T02:31:28;1.67;;;1.17;;
65275;SDS011;51875;49.994;14.052;2024-03-29T02:32:45;1.35;;;0.98;;
65275;SDS011;51875;49.994;14.052;2024-03-29T02:34:02;1.65;;;0.95;;
65275;SDS011;51875;49.994;14.052;2024-03-29T02:35:18;3.25;;;1.33;;
65275;SDS011;51875;49.994;14.052;2024-03-29T02:36:34;2.80;;;1.23;;
65275;SDS011;51875;49.994;14.052;2024-03-29T02:37:51;2.08;;;1.10;;
65275;SDS011;51875;49.994;14.052;2024-03-29T02:39:07;1.25;;;1.00;;
65275;SDS011;51875;49.994;14.052;2024-03-29T02:40:24;4.28;;;1.27;;
65275;SDS011;51875;49.994;14.052;2024-03-29T02:41:40;1.83;;;1.13;;
65275;SDS011;51875;49.994;14.052;2024-03-29T02:42:56;1.70;;;1.17;;
65275;SDS011;51875;49.994;14.052;2024-03-29T02:44:12;2.55;;;1.35;;
65275;SDS011;51875;49.994;14.052;2024-03-29T02:45:31;3.00;;;1.10;;
65275;SDS011;51875;49.994;14.052;2024-03-29T02:46:48;2.25;;;1.45;;
65275;SDS011;51875;49.994;14.052;2024-03-29T02:48:05;1.10;;;1.00;;
65275;SDS011;51875;49.994;14.052;2024-03-29T02:49:24;2.25;;;1.17;;
65275;SDS011;51875;49.994;14.052;2024-03-29T02:50:40;2.58;;;1.23;;
65275;SDS011;51875;49.994;14.052;2024-03-29T02:51:56;2.33;;;1.23;;
65275;SDS011;51875;49.994;14.052;2024-03-29T02:53:13;4.00;;;1.20;;
65275;SDS011;51875;49.994;14.052;2024-03-29T02:54:29;1.98;;;1.20;;
65275;SDS011;51875;49.994;14.052;2024-03-29T02:55:48;1.42;;;1.08;;
65275;SDS011;51875;49.994;14.052;2024-03-29T02:57:04;3.95;;;1.33;;
65275;SDS011;51875;49.994;14.052;2024-03-29T02:58:20;2.05;;;1.17;;
65275;SDS011;51875;49.994;14.052;2024-03-29T02:59:36;1.75;;;1.17;;
65275;SDS011;51875;49.994;14.052;2024-03-29T03:00:55;1.80;;;1.10;;
65275;SDS011;51875;49.994;14.052;2024-03-29T03:02:11;2.28;;;0.90;;
65275;SDS011;51875;49.994;14.052;2024-03-29T03:03:27;3.03;;;1.30;;
65275;SDS011;51875;49.994;14.052;2024-03-29T03:04:43;3.92;;;1.10;;
65275;SDS011;51875;49.994;14.052;2024-03-29T03:06:00;2.75;;;1.10;;
65275;SDS011;51875;49.994;14.052;2024-03-29T03:07:19;2.15;;;1.10;;
65275;SDS011;51875;49.994;14.052;2024-03-29T03:08:53;1.88;;;1.23;;
65275;SDS011;51875;49.994;14.052;2024-03-29T03:10:28;1.67;;;0.95;;
65275;SDS011;51875;49.994;14.052;2024-03-29T03:12:03;1.77;;;1.10;;
65275;SDS011;51875;49.994;14.052;2024-03-29T03:13:19;1.83;;;1.10;;
65275;SDS011;51875;49.994;14.052;2024-03-29T03:14:41;2.17;;;1.30;;
65275;SDS011;51875;49.994;14.052;2024-03-29T03:15:57;2.78;;;1.00;;
65275;SDS011;51875;49.994;14.052;2024-03-29T03:17:13;3.13;;;1.02;;
65275;SDS011;51875;49.994;14.052;2024-03-29T03:18:30;1.25;;;1.05;;
65275;SDS011;51875;49.994;14.052;2024-03-29T03:19:46;2.63;;;1.20;;
65275;SDS011;51875;49.994;14.052;2024-03-29T03:21:03;1.35;;;1.08;;
65275;SDS011;51875;49.994;14.052;2024-03-29T03:22:20;1.98;;;1.13;;
65275;SDS011;51875;49.994;14.052;2024-03-29T03:23:36;2.97;;;1.30;;
65275;SDS011;51875;49.994;14.052;2024-03-29T03:24:52;1.80;;;1.20;;
65275;SDS011;51875;49.994;14.052;2024-03-29T03:26:13;1.63;;;1.27;;
65275;SDS011;51875;49.994;14.052;2024-03-29T03:27:29;2.67;;;1.30;;
65275;SDS011;51875;49.994;14.052;2024-03-29T03:28:45;2.83;;;1.20;;
65275;SDS011;51875;49.994;14.052;2024-03-29T03:30:01;1.27;;;0.85;;
65275;SDS011;51875;49.994;14.052;2024-03-29T03:31:18;4.72;;;1.27;;
65275;SDS011;51875;49.994;14.052;2024-03-29T03:32:37;2.97;;;1.13;;
65275;SDS011;51875;49.994;14.052;2024-03-29T03:33:53;2.22;;;1.30;;
65275;SDS011;51875;49.994;14.052;2024-03-29T03:35:09;2.20;;;1.23;;
65275;SDS011;51875;49.994;14.052;2024-03-29T03:36:27;2.50;;;1.20;;
65275;SDS011;51875;49.994;14.052;2024-03-29T03:37:43;1.85;;;1.20;;
65275;SDS011;51875;49.994;14.052;2024-03-29T03:39:00;2.00;;;1.15;;
65275;SDS011;51875;49.994;14.052;2024-03-29T03:40:18;1.40;;;1.20;;
65275;SDS011;51875;49.994;14.052;2024-03-29T03:41:34;2.78;;;1.45;;
65275;SDS011;51875;49.994;14.052;2024-03-29T03:42:54;3.42;;;1.30;;
65275;SDS011;51875;49.994;14.052;2024-03-29T03:44:10;2.30;;;1.42;;
65275;SDS011;51875;49.994;14.052;2024-03-29T03:45:26;1.80;;;1.17;;
65275;SDS011;51875;49.994;14.052;2024-03-29T03:46:43;2.80;;;1.13;;
65275;SDS011;51875;49.994;14.052;2024-03-29T03:48:02;2.55;;;1.40;;
65275;SDS011;51875;49.994;14.052;2024-03-29T03:49:27;4.95;;;1.20;;
65275;SDS011;51875;49.994;14.052;2024-03-29T03:50:43;1.65;;;1.23;;
65275;SDS011;51875;49.994;14.052;2024-03-29T03:52:00;3.53;;;1.67;;
65275;SDS011;51875;49.994;14.052;2024-03-29T03:53:16;2.05;;;1.20;;
65275;SDS011;51875;49.994;14.052;2024-03-29T03:54:32;2.25;;;1.30;;
65275;SDS011;51875;49.994;14.052;2024-03-29T03:55:51;2.20;;;1.30;;
65275;SDS011;51875;49.994;14.052;2024-03-29T03:57:10;2.85;;;1.35;;
65275;SDS011;51875;49.994;14.052;2024-03-29T03:58:26;1.75;;;1.20;;
65275;SDS011;51875;49.994;14.052;2024-03-29T03:59:42;1.73;;;1.25;;
65275;SDS011;51875;49.994;14.052;2024-03-29T04:01:03;3.33;;;1.58;;
65275;SDS011;51875;49.994;14.052;2024-03-29T04:02:20;3.05;;;1.55;;
65275;SDS011;51875;49.994;14.052;2024-03-29T04:03:38;2.30;;;1.60;;
65275;SDS011;51875;49.994;14.052;2024-03-29T04:04:55;1.88;;;1.40;;
65275;SDS011;51875;49.994;14.052;2024-03-29T04:06:11;2.88;;;1.60;;
65275;SDS011;51875;49.994;14.052;2024-03-29T04:07:27;2.95;;;1.60;;
65275;SDS011;51875;49.994;14.052;2024-03-29T04:08:44;2.53;;;1.42;;
65275;SDS011;51875;49.994;14.052;2024-03-29T04:10:00;2.17;;;1.42;;
65275;SDS011;51875;49.994;14.052;2024-03-29T04:11:16;2.50;;;1.33;;
65275;SDS011;51875;49.994;14.052;2024-03-29T04:12:33;3.97;;;1.60;;
65275;SDS011;51875;49.994;14.052;2024-03-29T04:13:49;1.73;;;1.40;;
65275;SDS011;51875;49.994;14.052;2024-03-29T04:15:05;1.92;;;1.40;;
65275;SDS011;51875;49.994;14.052;2024-03-29T04:16:21;1.88;;;1.35;;
65275;SDS011;51875;49.994;14.052;2024-03-29T04:17:38;2.00;;;1.40;;
65275;SDS011;51875;49.994;14.052;2024-03-29T04:18:54;5.00;;;1.80;;
65275;SDS011;51875;49.994;14.052;2024-03-29T04:20:10;2.85;;;1.50;;
65275;SDS011;51875;49.994;14.052;2024-03-29T04:21:26;4.13;;;1.83;;
65275;SDS011;51875;49.994;14.052;2024-03-29T04:22:42;2.70;;;1.60;;
65275;SDS011;51875;49.994;14.052;2024-03-29T04:24:00;4.22;;;1.70;;
65275;SDS011;51875;49.994;14.052;2024-03-29T04:25:19;3.38;;;1.63;;
65275;SDS011;51875;49.994;14.052;2024-03-29T04:26:35;4.07;;;1.92;;
65275;SDS011;51875;49.994;14.052;2024-03-29T04:27:52;3.05;;;1.83;;
65275;SDS011;51875;49.994;14.052;2024-03-29T04:29:09;2.38;;;1.60;;
65275;SDS011;51875;49.994;14.052;2024-03-29T04:30:25;3.90;;;1.92;;
65275;SDS011;51875;49.994;14.052;2024-03-29T04:31:41;2.38;;;1.52;;
65275;SDS011;51875;49.994;14.052;2024-03-29T04:33:00;4.13;;;1.63;;
65275;SDS011;51875;49.994;14.052;2024-03-29T04:34:16;2.72;;;1.50;;
65275;SDS011;51875;49.994;14.052;2024-03-29T04:35:35;3.40;;;1.20;;
65275;SDS011;51875;49.994;14.052;2024-03-29T04:36:52;2.97;;;1.20;;
65275;SDS011;51875;49.994;14.052;2024-03-29T04:38:08;3.28;;;1.55;;
65275;SDS011;51875;49.994;14.052;2024-03-29T04:39:24;2.33;;;1.20;;
65275;SDS011;51875;49.994;14.052;2024-03-29T04:40:40;2.17;;;1.48;;
65275;SDS011;51875;49.994;14.052;2024-03-29T04:41:56;1.95;;;1.50;;
65275;SDS011;51875;49.994;14.052;2024-03-29T04:43:13;2.78;;;1.60;;
65275;SDS011;51875;49.994;14.052;2024-03-29T04:44:30;2.40;;;1.52;;
65275;SDS011;51875;49.994;14.052;2024-03-29T04:45:46;3.38;;;1.80;;
65275;SDS011;51875;49.994;14.052;2024-03-29T04:47:05;3.08;;;1.70;;
65275;SDS011;51875;49.994;14.052;2024-03-29T04:48:21;6.43;;;2.13;;
65275;SDS011;51875;49.994;14.052;2024-03-29T04:49:38;3.70;;;1.85;;
65275;SDS011;51875;49.994;14.052;2024-03-29T04:50:56;2.97;;;1.80;;
65275;SDS011;51875;49.994;14.052;2024-03-29T04:52:12;3.05;;;1.52;;
65275;SDS011;51875;49.994;14.052;2024-03-29T04:53:29;2.42;;;1.63;;
65275;SDS011;51875;49.994;14.052;2024-03-29T04:54:45;3.25;;;1.80;;
65275;SDS011;51875;49.994;14.052;2024-03-29T04:56:04;2.65;;;1.70;;
65275;SDS011;51875;49.994;14.052;2024-03-29T04:57:21;3.83;;;1.38;;
65275;SDS011;51875;49.994;14.052;2024-03-29T04:58:37;2.85;;;1.67;;
65275;SDS011;51875;49.994;14.052;2024-03-29T04:59:53;2.50;;;1.73;;
65275;SDS011;51875;49.994;14.052;2024-03-29T05:01:09;2.40;;;1.55;;
65275;SDS011;51875;49.994;14.052;2024-03-29T05:02:25;4.63;;;1.40;;
65275;SDS011;51875;49.994;14.052;2024-03-29T05:03:42;2.15;;;1.40;;
65275;SDS011;51875;49.994;14.052;2024-03-29T05:04:58;2.25;;;1.38;;
65275;SDS011;51875;49.994;14.052;2024-03-29T05:06:14;1.95;;;1.48;;
65275;SDS011;51875;49.994;14.052;2024-03-29T05:07:33;4.00;;;1.48;;
65275;SDS011;51875;49.994;14.052;2024-03-29T05:08:49;3.30;;;1.55;;
65275;SDS011;51875;49.994;14.052;2024-03-29T05:10:08;2.10;;;1.23;;
65275;SDS011;51875;49.994;14.052;2024-03-29T05:11:25;1.90;;;1.30;;
65275;SDS011;51875;49.994;14.052;2024-03-29T05:12:41;4.53;;;1.42;;
65275;SDS011;51875;49.994;14.052;2024-03-29T05:13:57;2.30;;;1.20;;
65275;SDS011;51875;49.994;14.052;2024-03-29T05:15:16;1.95;;;1.23;;
65275;SDS011;51875;49.994;14.052;2024-03-29T05:16:32;2.65;;;1.35;;
65275;SDS011;51875;49.994;14.052;2024-03-29T05:17:48;2.55;;;1.40;;
65275;SDS011;51875;49.994;14.052;2024-03-29T05:19:05;2.70;;;1.40;;
65275;SDS011;51875;49.994;14.052;2024-03-29T05:20:24;1.77;;;1.05;;
65275;SDS011;51875;49.994;14.052;2024-03-29T05:21:40;3.70;;;1.40;;
65275;SDS011;51875;49.994;14.052;2024-03-29T05:23:00;2.90;;;1.80;;
65275;SDS011;51875;49.994;14.052;2024-03-29T05:24:16;2.78;;;1.80;;
65275;SDS011;51875;49.994;14.052;2024-03-29T05:25:33;2.83;;;1.55;;
65275;SDS011;51875;49.994;14.052;2024-03-29T05:26:49;1.95;;;1.38;;
65275;SDS011;51875;49.994;14.052;2024-03-29T05:28:05;3.42;;;1.55;;
65275;SDS011;51875;49.994;14.052;2024-03-29T05:29:23;2.70;;;1.42;;
65275;SDS011;51875;49.994;14.052;2024-03-29T05:30:39;1.33;;;1.00;;
65275;SDS011;51875;49.994;14.052;2024-03-29T05:31:55;1.98;;;1.38;;
65275;SDS011;51875;49.994;14.052;2024-03-29T05:33:11;1.80;;;1.30;;
65275;SDS011;51875;49.994;14.052;2024-03-29T05:34:27;2.00;;;1.05;;
65275;SDS011;51875;49.994;14.052;2024-03-29T05:35:43;1.17;;;0.95;;
65275;SDS011;51875;49.994;14.052;2024-03-29T05:37:03;1.45;;;1.20;;
65275;SDS011;51875;49.994;14.052;2024-03-29T05:38:20;1.98;;;1.10;;
65275;SDS011;51875;49.994;14.052;2024-03-29T05:39:39;2.58;;;1.33;;
65275;SDS011;51875;49.994;14.052;2024-03-29T05:40:55;2.70;;;1.02;;
65275;SDS011;51875;49.994;14.052;2024-03-29T05:42:11;1.67;;;1.20;;
65275;SDS011;51875;49.994;14.052;2024-03-29T05:43:28;1.80;;;1.00;;
65275;SDS011;51875;49.994;14.052;2024-03-29T05:44:44;1.77;;;1.08;;
65275;SDS011;51875;49.994;14.052;2024-03-29T05:46:01;2.20;;;1.00;;
65275;SDS011;51875;49.994;14.052;2024-03-29T05:47:18;2.17;;;1.05;;
65275;SDS011;51875;49.994;14.052;2024-03-29T05:48:34;1.80;;;1.10;;
65275;SDS011;51875;49.994;14.052;2024-03-29T05:49:51;2.25;;;1.17;;
65275;SDS011;51875;49.994;14.052;2024-03-29T05:51:08;2.42;;;1.60;;
65275;SDS011;51875;49.994;14.052;2024-03-29T05:52:24;2.13;;;1.23;;
65275;SDS011;51875;49.994;14.052;2024-03-29T05:53:40;2.85;;;1.02;;
65275;SDS011;51875;49.994;14.052;2024-03-29T05:54:56;2.53;;;1.23;;
65275;SDS011;51875;49.994;14.052;2024-03-29T05:56:12;3.45;;;1.55;;
65275;SDS011;51875;49.994;14.052;2024-03-29T05:57:29;4.80;;;2.10;;
65275;SDS011;51875;49.994;14.052;2024-03-29T05:58:47;5.60;;;2.50;;
65275;SDS011;51875;49.994;14.052;2024-03-29T06:00:03;4.30;;;2.40;;
65275;SDS011;51875;49.994;14.052;2024-03-29T06:01:20;4.47;;;2.78;;
65275;SDS011;51875;49.994;14.052;2024-03-29T06:02:38;3.55;;;2.10;;
65275;SDS011;51875;49.994;14.052;2024-03-29T06:03:55;2.88;;;1.75;;
65275;SDS011;51875;49.994;14.052;2024-03-29T06:05:15;2.00;;;1.08;;
65275;SDS011;51875;49.994;14.052;2024-03-29T06:06:31;1.58;;;1.27;;
65275;SDS011;51875;49.994;14.052;2024-03-29T06:07:47;2.75;;;1.50;;
65275;SDS011;51875;49.994;14.052;2024-03-29T06:09:04;3.92;;;1.80;;
65275;SDS011;51875;49.994;14.052;2024-03-29T06:10:20;2.75;;;1.75;;
65275;SDS011;51875;49.994;14.052;2024-03-29T06:11:36;2.00;;;1.52;;
65275;SDS011;51875;49.994;14.052;2024-03-29T06:12:52;2.25;;;1.40;;
65275;SDS011;51875;49.994;14.052;2024-03-29T06:14:09;2.42;;;1.48;;
65275;SDS011;51875;49.994;14.052;2024-03-29T06:15:25;5.85;;;1.50;;
65275;SDS011;51875;49.994;14.052;2024-03-29T06:16:59;5.93;;;1.33;;
65275;SDS011;51875;49.994;14.052;2024-03-29T06:18:34;5.50;;;0.90;;
65275;SDS011;51875;49.994;14.052;2024-03-29T06:19:53;1.17;;;0.73;;
65275;SDS011;51875;49.994;14.052;2024-03-29T06:21:15;1.90;;;0.70;;
65275;SDS011;51875;49.994;14.052;2024-03-29T06:22:32;0.68;;;0.63;;
65275;SDS011;51875;49.994;14.052;2024-03-29T06:23:47;3.15;;;0.70;;
65275;SDS011;51875;49.994;14.052;2024-03-29T06:25:04;2.88;;;0.85;;
65275;SDS011;51875;49.994;14.052;2024-03-29T06:26:24;2.50;;;1.02;;
65275;SDS011;51875;49.994;14.052;2024-03-29T06:27:40;1.77;;;0.90;;
65275;SDS011;51875;49.994;14.052;2024-03-29T06:28:59;1.48;;;0.90;;
65275;SDS011;51875;49.994;14.052;2024-03-29T06:30:16;1.20;;;0.77;;
65275;SDS011;51875;49.994;14.052;2024-03-29T06:31:32;1.70;;;1.00;;
65275;SDS011;51875;49.994;14.052;2024-03-29T06:32:48;1.35;;;0.77;;
65275;SDS011;51875;49.994;14.052;2024-03-29T06:34:04;1.08;;;0.70;;
65275;SDS011;51875;49.994;14.052;2024-03-29T06:35:21;0.80;;;0.60;;
65275;SDS011;51875;49.994;14.052;2024-03-29T06:36:37;1.65;;;0.80;;
65275;SDS011;51875;49.994;14.052;2024-03-29T06:37:59;1.08;;;0.77;;
65275;SDS011;51875;49.994;14.052;2024-03-29T06:39:28;2.42;;;0.85;;
65275;SDS011;51875;49.994;14.052;2024-03-29T06:40:47;1.73;;;0.90;;
65275;SDS011;51875;49.994;14.052;2024-03-29T06:42:27;2.13;;;0.90;;
65275;SDS011;51875;49.994;14.052;2024-03-29T06:43:49;1.58;;;0.85;;
65275;SDS011;51875;49.994;14.052;2024-03-29T06:45:08;1.75;;;0.80;;
65275;SDS011;51875;49.994;14.052;2024-03-29T06:46:28;1.10;;;0.75;;
65275;SDS011;51875;49.994;14.052;2024-03-29T06:47:49;1.98;;;0.90;;
65275;SDS011;51875;49.994;14.052;2024-03-29T06:49:14;1.52;;;0.90;;
65275;SDS011;51875;49.994;14.052;2024-03-29T06:50:34;1.60;;;0.80;;
65275;SDS011;51875;49.994;14.052;2024-03-29T06:51:50;1.00;;;0.77;;
65275;SDS011;51875;49.994;14.052;2024-03-29T06:53:06;2.45;;;0.80;;
65275;SDS011;51875;49.994;14.052;2024-03-29T06:54:30;4.65;;;1.00;;
65275;SDS011;51875;49.994;14.052;2024-03-29T06:55:48;2.85;;;0.80;;
65275;SDS011;51875;49.994;14.052;2024-03-29T06:57:05;1.67;;;0.85;;
65275;SDS011;51875;49.994;14.052;2024-03-29T06:58:22;1.58;;;0.90;;
65275;SDS011;51875;49.994;14.052;2024-03-29T06:59:38;1.42;;;0.90;;
65275;SDS011;51875;49.994;14.052;2024-03-29T07:00:54;1.70;;;1.08;;
65275;SDS011;51875;49.994;14.052;2024-03-29T07:02:10;4.80;;;1.35;;
65275;SDS011;51875;49.994;14.052;2024-03-29T07:03:27;9.00;;;1.58;;
65275;SDS011;51875;49.994;14.052;2024-03-29T07:04:43;5.35;;;1.27;;
65275;SDS011;51875;49.994;14.052;2024-03-29T07:05:59;0.77;;;0.55;;
65275;SDS011;51875;49.994;14.052;2024-03-29T07:07:15;1.55;;;0.63;;
65275;SDS011;51875;49.994;14.052;2024-03-29T07:08:31;7.18;;;1.40;;
65275;SDS011;51875;49.994;14.052;2024-03-29T07:09:47;4.25;;;1.25;;
65275;SDS011;51875;49.994;14.052;2024-03-29T07:11:03;3.28;;;0.95;;
65275;SDS011;51875;49.994;14.052;2024-03-29T07:12:19;6.53;;;0.95;;
65275;SDS011;51875;49.994;14.052;2024-03-29T07:13:35;2.63;;;0.85;;
65275;SDS011;51875;49.994;14.052;2024-03-29T07:14:54;2.80;;;0.95;;
65275;SDS011;51875;49.994;14.052;2024-03-29T07:16:12;3.10;;;1.30;;
65275;SDS011;51875;49.994;14.052;2024-03-29T07:17:28;3.67;;;1.33;;
65275;SDS011;51875;49.994;14.052;2024-03-29T07:18:44;3.05;;;1.27;;
65275;SDS011;51875;49.994;14.052;2024-03-29T07:20:00;4.07;;;1.40;;
65275;SDS011;51875;49.994;14.052;2024-03-29T07:21:16;2.72;;;1.00;;
65275;SDS011;51875;49.994;14.052;2024-03-29T07:22:32;1.60;;;0.70;;
65275;SDS011;51875;49.994;14.052;2024-03-29T07:23:48;6.35;;;0.80;;
65275;SDS011;51875;49.994;14.052;2024-03-29T07:25:04;1.67;;;0.85;;
65275;SDS011;51875;49.994;14.052;2024-03-29T07:26:21;2.65;;;1.35;;
65275;SDS011;51875;49.994;14.052;2024-03-29T07:27:37;2.00;;;1.25;;
65275;SDS011;51875;49.994;14.052;2024-03-29T07:28:53;4.70;;;1.67;;
65275;SDS011;51875;49.994;14.052;2024-03-29T07:30:09;2.60;;;1.02;;
65275;SDS011;51875;49.994;14.052;2024-03-29T07:31:26;2.80;;;1.02;;
65275;SDS011;51875;49.994;14.052;2024-03-29T07:32:42;3.75;;;1.70;;
65275;SDS011;51875;49.994;14.052;2024-03-29T07:33:58;4.63;;;1.45;;
65275;SDS011;51875;49.994;14.052;2024-03-29T07:35:15;3.30;;;0.90;;
65275;SDS011;51875;49.994;14.052;2024-03-29T07:36:32;2.75;;;0.70;;
65275;SDS011;51875;49.994;14.052;2024-03-29T07:37:51;3.40;;;0.55;;
65275;SDS011;51875;49.994;14.052;2024-03-29T07:39:09;2.47;;;0.70;;
65275;SDS011;51875;49.994;14.052;2024-03-29T07:40:25;2.38;;;0.65;;